MAS209 VAAH-WMKK
Flight info
| Callsign | MAS209 |
|---|---|
| Flight time | N/A |
| Altitude | 37000 |
| Route | BODAR N895 NNP N877 AGEGA L510 GIVAL P628 VPL Y503 RINBA Y507 KAKAK |
| Aircraft | B38M/M-SDE1FGHILORVWXY/HB1 |
Departure
| Time | 2026-04-21 14:06 |
|---|---|
| Airport | Sardar Vallabh Patel International Airport (VAAH) |
Arrival
| Time | N/A |
|---|---|
| Airport | Kuala Lumpur International Airport (WMKK) |
| Time | Latitude | Longitude | Altitude | Speed | Heading |
|---|---|---|---|---|---|
| 2026-04-21 13:33 | 23.07424 | 72.62508 | 188 ft | 0 kts | 316° |
| 2026-04-21 13:58 | 23.07417 | 72.62516 | 206 ft | 4 kts | 318° |
| 2026-04-21 13:58 | 23.07396 | 72.62534 | 200 ft | 4 kts | 328° |
| 2026-04-21 13:58 | 23.07372 | 72.62545 | 196 ft | 4 kts | 352° |
| 2026-04-21 13:58 | 23.07351 | 72.62541 | 196 ft | 2 kts | 45° |
| 2026-04-21 13:59 | 23.07350 | 72.62539 | 196 ft | 2 kts | 46° |
| 2026-04-21 14:01 | 23.07354 | 72.62545 | 196 ft | 3 kts | 46° |
| 2026-04-21 14:02 | 23.07394 | 72.62590 | 195 ft | 13 kts | 46° |
| 2026-04-21 14:02 | 23.07478 | 72.62686 | 192 ft | 22 kts | 46° |
| 2026-04-21 14:02 | 23.07539 | 72.62782 | 200 ft | 10 kts | 103° |
| 2026-04-21 14:03 | 23.07493 | 72.62947 | 199 ft | 16 kts | 43° |
| 2026-04-21 14:03 | 23.07581 | 72.63039 | 203 ft | 18 kts | 45° |
| 2026-04-21 14:03 | 23.07671 | 72.63132 | 210 ft | 18 kts | 48° |
| 2026-04-21 14:03 | 23.07698 | 72.63260 | 195 ft | 18 kts | 88° |
| 2026-04-21 14:04 | 23.07721 | 72.63404 | 199 ft | 22 kts | 65° |
| 2026-04-21 14:04 | 23.07834 | 72.63548 | 198 ft | 29 kts | 44° |
| 2026-04-21 14:04 | 23.07969 | 72.63698 | 200 ft | 28 kts | 47° |
| 2026-04-21 14:04 | 23.08105 | 72.63854 | 196 ft | 28 kts | 45° |
| 2026-04-21 14:05 | 23.08236 | 72.63993 | 199 ft | 26 kts | 45° |
| 2026-04-21 14:05 | 23.08307 | 72.64117 | 205 ft | 15 kts | 54° |
| 2026-04-21 14:05 | 23.08337 | 72.64110 | 203 ft | 3 kts | 255° |
| 2026-04-21 14:05 | 23.08288 | 72.64051 | 200 ft | 19 kts | 225° |
| 2026-04-21 14:06 | 23.08035 | 72.63780 | 205 ft | 89 kts | 224° |
| 2026-04-21 14:06 | 23.07421 | 72.63125 | 201 ft | 156 kts | 224° |
| 2026-04-21 14:06 | 23.06580 | 72.62221 | 633 ft | 180 kts | 224° |
| 2026-04-21 14:06 | 23.05606 | 72.61195 | 1114 ft | 205 kts | 226° |
| 2026-04-21 14:07 | 23.04404 | 72.60359 | 2119 ft | 210 kts | 202° |
| 2026-04-21 14:07 | 23.02875 | 72.60265 | 2530 ft | 236 kts | 165° |
| 2026-04-21 14:07 | 23.01489 | 72.61268 | 2616 ft | 248 kts | 133° |
| 2026-04-21 14:07 | 23.00321 | 72.62652 | 2777 ft | 255 kts | 135° |
| 2026-04-21 14:08 | 22.99073 | 72.64034 | 2823 ft | 258 kts | 136° |
| 2026-04-21 14:08 | 22.97758 | 72.65465 | 2896 ft | 274 kts | 136° |
| 2026-04-21 14:08 | 22.96395 | 72.66935 | 2946 ft | 279 kts | 136° |
| 2026-04-21 14:08 | 22.95013 | 72.68422 | 2976 ft | 280 kts | 136° |
| 2026-04-21 14:09 | 22.93628 | 72.69908 | 2990 ft | 280 kts | 136° |
| 2026-04-21 14:09 | 22.92238 | 72.71398 | 2997 ft | 281 kts | 137° |
| 2026-04-21 14:09 | 22.90850 | 72.72886 | 2996 ft | 281 kts | 136° |
| 2026-04-21 14:09 | 22.89462 | 72.74369 | 2999 ft | 280 kts | 136° |
| 2026-04-21 14:10 | 22.88114 | 72.75857 | 3038 ft | 283 kts | 128° |
| 2026-04-21 14:10 | 22.87326 | 72.77744 | 3937 ft | 279 kts | 103° |
| 2026-04-21 14:10 | 22.86899 | 72.79808 | 4871 ft | 285 kts | 103° |
| 2026-04-21 14:10 | 22.86473 | 72.81951 | 5799 ft | 287 kts | 103° |
| 2026-04-21 14:11 | 22.86070 | 72.84052 | 6712 ft | 291 kts | 103° |
| 2026-04-21 14:11 | 22.85664 | 72.86222 | 7550 ft | 296 kts | 103° |
| 2026-04-21 14:11 | 22.85257 | 72.88429 | 8400 ft | 300 kts | 103° |
| 2026-04-21 14:11 | 22.84848 | 72.90672 | 9250 ft | 306 kts | 103° |
| 2026-04-21 14:12 | 22.84434 | 72.92948 | 10058 ft | 311 kts | 103° |
| 2026-04-21 14:12 | 22.84009 | 72.95295 | 10625 ft | 325 kts | 102° |
| 2026-04-21 14:12 | 22.83561 | 72.97762 | 11035 ft | 343 kts | 102° |
| 2026-04-21 14:12 | 22.83090 | 73.00355 | 11462 ft | 358 kts | 102° |
| 2026-04-21 14:13 | 22.82602 | 73.03039 | 12026 ft | 366 kts | 102° |
| 2026-04-21 14:13 | 22.82108 | 73.05754 | 12814 ft | 368 kts | 102° |
| 2026-04-21 14:13 | 22.81607 | 73.08505 | 13476 ft | 374 kts | 102° |
| 2026-04-21 14:13 | 22.81101 | 73.11285 | 14101 ft | 378 kts | 102° |
| 2026-04-21 14:14 | 22.80592 | 73.14083 | 14766 ft | 379 kts | 102° |
| 2026-04-21 14:14 | 22.80081 | 73.16891 | 15428 ft | 380 kts | 101° |
| 2026-04-21 14:14 | 22.79567 | 73.19712 | 16050 ft | 383 kts | 101° |
| 2026-04-21 14:14 | 22.79056 | 73.22507 | 16662 ft | 385 kts | 101° |
| 2026-04-21 14:15 | 22.78534 | 73.25364 | 17231 ft | 388 kts | 101° |
| 2026-04-21 14:15 | 22.78010 | 73.28234 | 17822 ft | 390 kts | 101° |
| 2026-04-21 14:15 | 22.77481 | 73.31118 | 18395 ft | 390 kts | 101° |
| 2026-04-21 14:15 | 22.76952 | 73.34011 | 18880 ft | 393 kts | 100° |
| 2026-04-21 14:16 | 22.76416 | 73.36928 | 19347 ft | 396 kts | 100° |
| 2026-04-21 14:16 | 22.75878 | 73.39857 | 19832 ft | 397 kts | 100° |
| 2026-04-21 14:16 | 22.75336 | 73.42804 | 20302 ft | 400 kts | 100° |
| 2026-04-21 14:16 | 22.74790 | 73.45770 | 20759 ft | 403 kts | 100° |
| 2026-04-21 14:17 | 22.74239 | 73.48762 | 21223 ft | 405 kts | 99° |
| 2026-04-21 14:17 | 22.73685 | 73.51765 | 21689 ft | 408 kts | 99° |
| 2026-04-21 14:17 | 22.73127 | 73.54783 | 22141 ft | 410 kts | 99° |
| 2026-04-21 14:17 | 22.72566 | 73.57820 | 22586 ft | 412 kts | 99° |
| 2026-04-21 14:18 | 22.71999 | 73.60880 | 23031 ft | 415 kts | 99° |
| 2026-04-21 14:18 | 22.71430 | 73.63955 | 23445 ft | 418 kts | 99° |
| 2026-04-21 14:18 | 22.70864 | 73.67003 | 23807 ft | 420 kts | 99° |
| 2026-04-21 14:18 | 22.70286 | 73.70112 | 24159 ft | 423 kts | 99° |
| 2026-04-21 14:19 | 22.69704 | 73.73243 | 24519 ft | 425 kts | 99° |
| 2026-04-21 14:19 | 22.69119 | 73.76386 | 24876 ft | 428 kts | 99° |
| 2026-04-21 14:19 | 22.68528 | 73.79555 | 25232 ft | 430 kts | 99° |
| 2026-04-21 14:19 | 22.67935 | 73.82737 | 25585 ft | 433 kts | 99° |
| 2026-04-21 14:20 | 22.67336 | 73.85943 | 25926 ft | 435 kts | 99° |
| 2026-04-21 14:20 | 22.66734 | 73.89165 | 26268 ft | 438 kts | 99° |
| 2026-04-21 14:20 | 22.66128 | 73.92398 | 26615 ft | 440 kts | 99° |
| 2026-04-21 14:20 | 22.65518 | 73.95658 | 26942 ft | 443 kts | 99° |
| 2026-04-21 14:21 | 22.64903 | 73.98933 | 27263 ft | 445 kts | 99° |
| 2026-04-21 14:21 | 22.64283 | 74.02231 | 27582 ft | 448 kts | 99° |
| 2026-04-21 14:21 | 22.63659 | 74.05549 | 27906 ft | 450 kts | 99° |
| 2026-04-21 14:21 | 22.63032 | 74.08882 | 28231 ft | 453 kts | 99° |
| 2026-04-21 14:22 | 22.62401 | 74.12231 | 28538 ft | 456 kts | 99° |
| 2026-04-21 14:22 | 22.61765 | 74.15599 | 28837 ft | 458 kts | 99° |
| 2026-04-21 14:22 | 22.61125 | 74.18988 | 29138 ft | 460 kts | 99° |
| 2026-04-21 14:22 | 22.60425 | 74.22379 | 29420 ft | 464 kts | 104° |
| 2026-04-21 14:23 | 22.59473 | 74.25680 | 29745 ft | 466 kts | 105° |
| 2026-04-21 14:23 | 22.58493 | 74.29039 | 30010 ft | 469 kts | 105° |
| 2026-04-21 14:23 | 22.57513 | 74.32370 | 30252 ft | 471 kts | 105° |
| 2026-04-21 14:23 | 22.56514 | 74.35757 | 30517 ft | 473 kts | 105° |
| 2026-04-21 14:24 | 22.55512 | 74.39148 | 30769 ft | 475 kts | 105° |
| 2026-04-21 14:24 | 22.54503 | 74.42564 | 31026 ft | 477 kts | 105° |
| 2026-04-21 14:24 | 22.53490 | 74.45988 | 31297 ft | 479 kts | 105° |
| 2026-04-21 14:24 | 22.52475 | 74.49415 | 31650 ft | 478 kts | 105° |
| 2026-04-21 14:25 | 22.51461 | 74.52837 | 32000 ft | 478 kts | 106° |
| 2026-04-21 14:25 | 22.50446 | 74.56256 | 32356 ft | 477 kts | 106° |
| 2026-04-21 14:25 | 22.49432 | 74.59674 | 32697 ft | 477 kts | 106° |
| 2026-04-21 14:25 | 22.48418 | 74.63084 | 33052 ft | 476 kts | 106° |
| 2026-04-21 14:26 | 22.47404 | 74.66494 | 33400 ft | 476 kts | 106° |
| 2026-04-21 14:26 | 22.46387 | 74.69910 | 33726 ft | 475 kts | 106° |
| 2026-04-21 14:26 | 22.45375 | 74.73306 | 34029 ft | 475 kts | 107° |
| 2026-04-21 14:26 | 22.44361 | 74.76707 | 34294 ft | 475 kts | 107° |
| 2026-04-21 14:27 | 22.43348 | 74.80101 | 34556 ft | 475 kts | 107° |
| 2026-04-21 14:27 | 22.42330 | 74.83511 | 34791 ft | 475 kts | 107° |
| 2026-04-21 14:27 | 22.41314 | 74.86909 | 35018 ft | 475 kts | 108° |
| 2026-04-21 14:27 | 22.40309 | 74.90271 | 35253 ft | 476 kts | 108° |
| 2026-04-21 14:28 | 22.39291 | 74.93669 | 35476 ft | 476 kts | 108° |
| 2026-04-21 14:28 | 22.38271 | 74.97071 | 35697 ft | 476 kts | 108° |
| 2026-04-21 14:28 | 22.37253 | 75.00468 | 35910 ft | 476 kts | 108° |
| 2026-04-21 14:28 | 22.36232 | 75.03869 | 36105 ft | 476 kts | 109° |
| 2026-04-21 14:29 | 22.35209 | 75.07274 | 36303 ft | 476 kts | 109° |
| 2026-04-21 14:29 | 22.34184 | 75.10682 | 36491 ft | 477 kts | 109° |
| 2026-04-21 14:29 | 22.33160 | 75.14085 | 36670 ft | 477 kts | 109° |
| 2026-04-21 14:29 | 22.32131 | 75.17501 | 36830 ft | 477 kts | 110° |
| 2026-04-21 14:30 | 22.31103 | 75.20914 | 36871 ft | 478 kts | 110° |